Terminal Aerodrome Forecast
Issued by NWS Tuscon, AZ

Home | Current Version | Previous Version | Text Only | Print | Product List | Glossary On
Versions: 1 2 3 4 5 6 7 8 9 10 11 12
000
FTUS45 KTWC 011100
TAFDUG
TAF
KDUG 011120Z 0112/0212 VRB03KT P6SM SKC
     FM011900 31010KT P6SM SCT090
     FM020400 36005KT P6SM SKC=

USA.gov is the U.S. government's official web portal to all federal, state and local government web resources and services.